Thursday, February 22, 2018, 5:41 AM EST
Back to Local

KHGR, Hagerstown Regional Airport

Location: Hagerstown, MD, United States Lat: 39.7
Local Time: 5:41 AM EST (10:41 GMT) Lon: -77.733
Time Zone: US/Eastern Elev: 705 ft

Show me the last for .
Show Decoded

2018-02-22 05:20 METAR KHGR 221020Z AUTO 03006KT 10SM -RA OVC030 09/02 A3047 RMK AO2 RAB17 P0000
                 T00890017 =
2018-02-22 05:00 METAR KHGR 221000Z AUTO 01008KT 10SM OVC029 09/01 A3047 RMK AO2 T00940011 =
2018-02-22 04:53 METAR KHGR 220953Z AUTO 01009KT 10SM OVC030 09/01 A3046 RMK AO2 RAE0857B42E52
                 SLP325 P0000 T00940011 =
2018-02-22 04:19 METAR KHGR 220919Z AUTO 01008KT 10SM OVC030 10/01 A3046 RMK AO2 RAE0857 P0000
                 T01000011 =
2018-02-22 03:53 METAR KHGR 220853Z AUTO 36007KT 10SM -RA OVC029 10/04 A3045 RMK AO2 RAB39 SLP320
                 P0000 60000 T01000044 53003 =
2018-02-22 02:53 METAR KHGR 220753Z AUTO 01015G18KT 10SM OVC027 11/04 A3044 RMK AO2 SLP314
                 T01110044 =
2018-02-22 01:53 METAR KHGR 220653Z AUTO 02009KT 10SM FEW021 BKN028 OVC042 12/08 A3044 RMK AO2
                 SLP315 T01170083 =
2018-02-22 01:48 METAR KHGR 220648Z 02010KT 10SM FEW021 SCT028 OVC041 12/08 A3044 RMK AO2 =
2018-02-22 01:20 METAR KHGR 220620Z 01012KT 10SM OVC029 12/09 A3044 RMK AO2 T01220089 =
2018-02-22 00:53 METAR KHGR 220553Z 02012KT 10SM OVC030 13/09 A3043 RMK AO2 SLP312 60001
                 T01280094 10200 20128 51018 =
2018-02-21 23:53 METAR KHGR 220453Z 35012G20KT 10SM FEW033 SCT043 OVC055 15/11 A3043 RMK AO2
                 PRESRR SLP311 T01500111 402780150 =
2018-02-21 22:53 METAR KHGR 220353Z 32005KT 10SM OVC060 17/13 A3039 RMK AO2 SLP299 T01670128 =
2018-02-21 21:53 METAR KHGR 220253Z 33003KT 10SM OVC065 17/13 A3038 RMK AO2 RAE00B21E43 SLP294
                 P0000 60001 T01720133 53016 =
2018-02-21 20:53 METAR KHGR 220153Z 00000KT 10SM -RA OVC070 18/13 A3037 RMK AO2 RAB37 SLP290
                 P0001 T01830128 =
2018-02-21 19:53 METAR KHGR 220053Z 35008KT 10SM FEW065 OVC080 19/13 A3033 RMK AO2 RAE2357B14E27
                 SLP280 P0000 T01890133 =
2018-02-21 18:53 METAR KHGR 212353Z 32012KT 10SM -RA BKN043 OVC080 20/13 A3033 RMK AO2 RAB16
                 SLP279 P0000 60002 T02000133 10278 20200 53031 =
2018-02-21 17:53 METAR KHGR 212253Z 19004KT 10SM BKN090 BKN100 22/17 A3027 RMK AO2 SLP258
                 T02220172 =
2018-02-21 16:53 METAR KHGR 212153Z 25006KT 10SM BKN110 23/17 A3025 RMK AO2 RAE38 SLP250 P0002
                 T02330167 =
2018-02-21 15:53 METAR KHGR 212053Z 29013KT 10SM -RA SCT055 BKN070 OVC090 24/16 A3024 RMK AO2
                 RAB26 PRESRR SLP244 P0000 60000 T02440161 53002 =
2018-02-21 14:53 METAR KHGR 211953Z 19013G18KT 10SM FEW075 BKN090 28/14 A3021 RMK AO2 SLP233
                 T02780144 =
2018-02-21 13:53 METAR KHGR 211853Z 21011G19KT 10SM FEW055 BKN075 27/14 A3021 RMK AO2 SLP237
                 T02720139 =
2018-02-21 12:53 METAR KHGR 211753Z 20016G22KT 10SM CLR 27/14 A3023 RMK AO2 SLP242 T02720139
                 10272 20156 58022 =
2018-02-21 11:53 METAR KHGR 211653Z 19018G23KT 10SM CLR 26/14 A3026 RMK AO2 SLP252 T02560139 =
2018-02-21 10:53 METAR KHGR 211553Z 20015G22KT 10SM SCT080 23/14 A3028 RMK AO2 PK WND 20027/1533
                 SLP258 T02330139 =
2018-02-21 09:53 METAR KHGR 211453Z 20011G19KT 10SM CLR 21/13 A3030 RMK AO2 SLP266 T02060133
                 50004 =
2018-02-21 08:53 METAR KHGR 211353Z 18010KT 10SM FEW090 18/13 A3030 RMK AO2 SLP268 T01830128 =
2018-02-21 07:53 METAR KHGR 211253Z 19008KT 10SM CLR 17/12 A3029 RMK AO2 SLP264 T01670122 =
2018-02-21 06:53 METAR KHGR 211153Z 19009KT 10SM CLR 16/12 A3028 RMK AO2 SLP263 T01560117 10172
                 20150 51004 =
2018-02-21 05:53 METAR KHGR 211053Z AUTO 18009KT 10SM CLR 17/12 A3028 RMK AO2 SLP262 T01670117 =

Support USWX by starting your Amazon purchase here.